^^
Datos históricos de la estación: Murcia-Puente Tocinos
Diario Informe para Abril 17, 2018 Unidades:  Inglés    Métrico   Ambas
Diario Semanal Mensual Anual Configurable
  Máximo: Mínimo: Media:
Temperatura: 76.1 °F 56.7 °F 65.5 °F
Punto de rocio: 49.3 °F 40.3 °F 46.2 °F
Humedad: 71% 34% 51%
Velocidad viento: 11.2mph 1.4mph 4.9mph
Racha viento: 20.7mph - -
Viento- - SSE
Presión: 30.2 in 30.1 in -
Precipitación: 0 in    
Historical Graphs
 
 
Tabla de datos para Abril 17, 2018
Hora Temperatura Punto de rocio Presión Viento Velocidad viento Racha viento Humedad Intensidad lluvia(por hora) Nubes
00:03 65.8 °F 40.8 °F 30.1 in NE 2.9 mph 3.6 mph 40% 0 in RA
00:08 65.7 °F 40.6 °F 30.1 in NE 2.9 mph 4.6 mph 40% 0 in RA
00:13 65.7 °F 40.6 °F 30.1 in WNW 2.9 mph 4 mph 40% 0 in CLR
00:18 65.5 °F 40.5 °F 30.1 in West 2.4 mph 6.9 mph 40% 0 in CLR
00:23 65.3 °F 40.3 °F 30.1 in SW 2.4 mph 5.4 mph 40% 0 in CLR
00:28 65.1 °F 40.8 °F 30.1 in SW 4 mph 6.9 mph 41% 0 in CLR
00:33 65.1 °F 40.8 °F 30.1 in NW 4 mph 4 mph 41% 0 in CLR
00:38 64.9 °F 41.4 °F 30.1 in NW 4 mph 5.8 mph 42% 0 in CLR
00:43 64.4 °F 42.6 °F 30.1 in NNE 4 mph 6.9 mph 45% 0 in CLR
00:48 63.3 °F 44.4 °F 30.1 in NE 3.6 mph 5.8 mph 50% 0 in CLR
00:53 62.4 °F 44.6 °F 30.1 in NE 3.6 mph 5.4 mph 52% 0 in CLR
00:58 61.9 °F 44.6 °F 30.1 in NE 4 mph 4 mph 53% 0 in CLR
01:03 61.5 °F 45.1 °F 30.1 in North 4 mph 4 mph 55% 0 in CLR
01:08 61.3 °F 45.5 °F 30.1 in NNE 1.8 mph 3.1 mph 56% 0 in CLR
01:13 61 °F 46 °F 30.1 in NNW 1.8 mph 3.5 mph 58% 0 in CLR
01:18 60.6 °F 45.9 °F 30.1 in NNW 1.8 mph 5.4 mph 58% 0 in CLR
01:23 60.4 °F 45.7 °F 30.1 in NW 1.8 mph 4.6 mph 58% 0 in CLR
01:28 60.1 °F 46.6 °F 30.1 in NNE 2.9 mph 5.8 mph 61% 0 in CLR
01:33 59.5 °F 46.9 °F 30.1 in North 2.9 mph 6.9 mph 63% 0 in CLR
01:38 59 °F 47.1 °F 30.1 in North 4 mph 6.9 mph 65% 0 in CLR
01:43 58.8 °F 47.5 °F 30.1 in East 4 mph 5.8 mph 66% 0 in CLR
01:48 58.6 °F 47.3 °F 30.1 in North 4 mph 4.6 mph 66% 0 in CLR
01:53 58.5 °F 47.1 °F 30.1 in NE 4 mph 5.8 mph 66% 0 in CLR
01:58 58.5 °F 47.5 °F 30.1 in NW 3.1 mph 5.8 mph 67% 0 in CLR
02:03 58.5 °F 47.5 °F 30.1 in West 3.1 mph 3.5 mph 67% 0 in CLR
02:08 58.5 °F 47.5 °F 30.1 in West 2.9 mph 3.5 mph 67% 0 in CLR
02:13 58.5 °F 47.5 °F 30.1 in NW 2.9 mph 4.6 mph 67% 0 in CLR
02:18 58.5 °F 47.5 °F 30.1 in ENE 1.8 mph 3.5 mph 67% 0 in CLR
02:23 58.5 °F 47.8 °F 30.1 in NNW 1.8 mph 3.5 mph 68% 0 in CLR
02:28 58.3 °F 47.8 °F 30.1 in NW 2 mph 4.6 mph 68% 0 in CLR
02:33 58.3 °F 48.2 °F 30.1 in NW 2 mph 3.6 mph 69% 0 in CLR
02:38 58.3 °F 48.2 °F 30.1 in WNW 2.9 mph 2.9 mph 69% 0 in CLR
02:43 58.1 °F 48 °F 30.1 in West 2.9 mph 3.5 mph 69% 0 in CLR
02:48 58.1 °F 48 °F 30.1 in West 2 mph 2.3 mph 69% 0 in CLR
02:53 58.1 °F 48 °F 30.1 in ENE 2 mph 3.5 mph 69% 0 in CLR
02:58 58.1 °F 48 °F 30.1 in South 2 mph 2.3 mph 69% 0 in CLR
03:03 58.3 °F 48.2 °F 30.1 in South 2 mph 2.3 mph 69% 0 in CLR
03:08 58.3 °F 48.2 °F 30.1 in South 2 mph 2.9 mph 69% 0 in CLR
03:13 58.3 °F 48.2 °F 30.1 in South 2 mph 2.3 mph 69% 0 in CLR
03:18 58.5 °F 48.4 °F 30.1 in South 1.4 mph 2.3 mph 69% 0 in CLR
03:23 58.5 °F 47.8 °F 30.1 in ESE 1.4 mph 6.9 mph 68% 0 in CLR
03:28 57.6 °F 47.1 °F 30.1 in ESE 2.4 mph 4.6 mph 68% 0 in CLR
03:33 57 °F 46.9 °F 30.1 in ESE 2.4 mph   69% 0 in CLR
03:38 57 °F 47.7 °F 30.1 in ESE 2 mph 2.3 mph 71% 0 in CLR
03:43 57.2 °F 47.5 °F 30.1 in ESE 2 mph 3.5 mph 70% 0 in CLR
03:48 57.6 °F 47.8 °F 30.1 in SSW 1.8 mph 3.5 mph 70% 0 in CLR
03:53 57.9 °F 47.8 °F 30.1 in SSE 1.8 mph 6.4 mph 69% 0 in CLR
03:58 57.6 °F 47.5 °F 30.1 in ESE 3.1 mph 9.2 mph 69% 0 in CLR
04:03 57.2 °F 47.5 °F 30.1 in SSE 3.1 mph 5.9 mph 70% 0 in CLR
04:08 57.2 °F 47.5 °F 30.1 in South 5.2 mph 5.2 mph 70% 0 in CLR
04:13 57.4 °F 47.7 °F 30.1 in South 5.2 mph 5.8 mph 70% 0 in CLR
04:18 57.6 °F 47.1 °F 30.1 in SSW 4 mph 6.9 mph 68% 0 in CLR
04:23 57.7 °F 46.9 °F 30.1 in SW 4 mph 4.6 mph 67% 0 in CLR
04:28 58.1 °F 46.8 °F 30.1 in South 4 mph 5.8 mph 66% 0 in CLR
04:33 58.3 °F 46.9 °F 30.1 in East 4 mph 4.6 mph 66% 0 in CLR
04:38 57.9 °F 46.6 °F 30.1 in NW 3.1 mph 3.1 mph 66% 0 in CLR
04:43 57.7 °F 46.6 °F 30.1 in WSW 3.1 mph 4.6 mph 66% 0 in CLR
04:48 57.7 °F 46 °F 30.1 in WSW 2 mph 4.6 mph 65% 0 in CLR
04:53 57.9 °F 46.2 °F 30.1 in WSW 2 mph 2.4 mph 65% 0 in CLR
04:58 57.9 °F 45.9 °F 30.1 in WSW 2.4 mph 4.6 mph 64% 0 in CLR
05:03 57.9 °F 45.3 °F 30.1 in WSW 2.4 mph 2.4 mph 63% 0 in CLR
05:05 57.9 °F 45.9 °F 30.1 in WSW 2 mph   64% 0 in CLR
05:10 57.9 °F 45.3 °F 30.1 in WSW 2 mph 3.5 mph 63% 0 in CLR
05:15 57.7 °F 44.8 °F 30.1 in South 2 mph 4.6 mph 62% 0 in CLR
05:20 57.7 °F 45.1 °F 30.1 in SSE 2 mph 3.5 mph 63% 0 in CLR
05:25 57.6 °F 44.6 °F 30.1 in SW 3.1 mph 4.6 mph 62% 0 in CLR
05:30 57.6 °F 45.1 °F 30.1 in SW 3.1 mph 3.1 mph 63% 0 in CLR
05:35 57.6 °F 45.1 °F 30.1 in SW 2 mph 4.6 mph 63% 0 in CLR
05:40 57.6 °F 45.1 °F 30.1 in WSW 2 mph 4.6 mph 63% 0 in CLR
05:45 57.4 °F 45 °F 30.1 in SW 2.9 mph 4.6 mph 63% 0 in CLR
05:50 57.6 °F 45.1 °F 30.1 in SW 2.9 mph 2.9 mph 63% 0 in CLR
05:55 57.6 °F 45.1 °F 30.1 in SW 1.8 mph 2.3 mph 63% 0 in CLR
06:00 57.4 °F 44.4 °F 30.1 in SW 1.8 mph 2.4 mph 62% 0 in CLR
06:05 57.2 °F 44.2 °F 30.1 in SW 1.4 mph 1.4 mph 62% 0 in CLR
06:10 57 °F 45 °F 30.1 in SW 1.4 mph 3.1 mph 64% 0 in CLR
06:15 57 °F 45 °F 30.1 in SW 1.8 mph 2.4 mph 64% 0 in CLR
06:20 56.8 °F 44.4 °F 30.1 in WSW 1.8 mph 4.6 mph 63% 0 in CLR
06:25 56.8 °F 44.1 °F 30.1 in WSW 2.9 mph 4.6 mph 62% 0 in CLR
06:30 56.8 °F 44.1 °F 30.1 in WSW 2.9 mph 4.6 mph 62% 0 in CLR
06:35 56.8 °F 44.1 °F 30.1 in West 2.9 mph 4.7 mph 62% 0 in CLR
06:40 56.8 °F 44.1 °F 30.1 in West 2.9 mph 4.7 mph 62% 0 in CLR
06:45 56.7 °F 43.9 °F 30.1 in WSW 4 mph 6.9 mph 62% 0 in CLR
06:50 56.8 °F 43.5 °F 30.1 in SW 4 mph 8.1 mph 61% 0 in CLR
06:55 57 °F 43.3 °F 30.1 in SW 4.3 mph 5.8 mph 60% 0 in CLR
07:00 56.8 °F 43.2 °F 30.1 in WNW 4.3 mph 4.3 mph 60% 0 in CLR
07:05 56.8 °F 43.5 °F 30.1 in West 2.9 mph 4.6 mph 61% 0 in CLR
07:10 56.8 °F 43.5 °F 30.1 in West 2.9 mph 4.6 mph 61% 0 in CLR
07:15 56.7 °F 43.3 °F 30.1 in WSW 2.9 mph 4.6 mph 61% 0 in CLR
07:20 56.7 °F 43.3 °F 30.1 in WSW 2.9 mph 4.7 mph 61% 0 in CLR
07:25 56.8 °F 43.2 °F 30.1 in WSW 4 mph 5.8 mph 60% 0 in CLR
07:30 57 °F 43.3 °F 30.1 in WSW 4 mph 8.1 mph 60% 0 in CLR
07:35 57 °F 43.3 °F 30.2 in West 4.3 mph 4.6 mph 60% 0 in CLR
07:40 57 °F 43.3 °F 30.2 in West 4.3 mph 4.3 mph 60% 0 in CLR
07:45 57 °F 43.3 °F 30.2 in West 2 mph 4.6 mph 60% 0 in CLR
07:50 57 °F 43.3 °F 30.2 in WSW 2 mph 3.5 mph 60% 0 in CLR
07:55 57.4 °F 43.5 °F 30.2 in WSW 2 mph 4.6 mph 60% 0 in CLR
08:00 57.6 °F 43.3 °F 30.2 in WSW 2 mph 3.5 mph 59% 0 in CLR
08:05 57.7 °F 43.5 °F 30.2 in WSW 2.4 mph 4.6 mph 59% 0 in CLR
08:10 57.9 °F 43.7 °F 30.2 in WSW 2.4 mph 4.6 mph 59% 0 in CLR
08:15 58.3 °F 43.5 °F 30.2 in SW 2.9 mph 4.6 mph 58% 0 in CLR
08:20 58.5 °F 43.7 °F 30.2 in SW 2.9 mph 3.5 mph 58% 0 in CLR
08:25 58.8 °F 44.1 °F 30.2 in SW 2.4 mph 4.6 mph 58% 0 in CLR
08:30 59.2 °F 43.9 °F 30.2 in SW 2.4 mph 3.5 mph 57% 0 in CLR
08:35 59.5 °F 43.9 °F 30.2 in WSW 2.9 mph 5.2 mph 56% 0 in CLR
08:40 60.1 °F 44.2 °F 30.2 in SSW 2.9 mph 4.6 mph 56% 0 in CLR
08:45 60.1 °F 44.2 °F 30.2 in SW 3.1 mph 3.5 mph 56% 0 in CLR
08:50 60.3 °F 44.1 °F 30.2 in SW 3.1 mph 5.8 mph 55% 0 in CLR
08:55 60.6 °F 44.4 °F 30.2 in SSW 3.6 mph 4.7 mph 55% 0 in CLR
09:00 61 °F 44.2 °F 30.2 in South 3.6 mph 5.8 mph 54% 0 in CLR
09:05 61.3 °F 44.4 °F 30.2 in WSW 3.6 mph 9.2 mph 54% 0 in CLR
09:10 61.5 °F 44.2 °F 30.2 in SW 3.6 mph 9.2 mph 53% 0 in CLR
09:15 61.7 °F 44.4 °F 30.2 in SW 4.7 mph 5.8 mph 53% 0 in CLR
09:20 61.9 °F 44.6 °F 30.2 in WSW 4.7 mph 5.8 mph 53% 0 in CLR
09:25 61.9 °F 44.6 °F 30.2 in SSW 4.7 mph 9.2 mph 53% 0 in CLR
09:30 61.9 °F 44.6 °F 30.2 in WSW 4.7 mph 9.2 mph 53% 0 in CLR
09:35 62.1 °F 44.8 °F 30.2 in SSW 4.7 mph 6.9 mph 53% 0 in CLR
09:40 62.2 °F 45 °F 30.2 in SW 4.7 mph 6.9 mph 53% 0 in CLR
09:45 62.6 °F 44.8 °F 30.2 in SW 4.3 mph 5.9 mph 52% 0 in CLR
09:50 62.8 °F 45 °F 30.2 in West 4.3 mph 9.2 mph 52% 0 in CLR
09:55 63 °F 45.1 °F 30.2 in SW 4.3 mph 6.9 mph 52% 0 in CLR
10:00 63.3 °F 45 °F 30.2 in SW 4.3 mph 6.4 mph 51% 0 in CLR
10:05 63.5 °F 45 °F 30.2 in WSW 4.7 mph 7.4 mph 51% 0 in CLR
10:10 63.9 °F 45 °F 30.2 in WSW 4.7 mph 8.1 mph 50% 0 in CLR
10:15 64 °F 45 °F 30.2 in WSW 4.7 mph 5.8 mph 50% 0 in CLR
10:20 64.4 °F 44.8 °F 30.2 in WSW 4.7 mph 8.7 mph 49% 0 in CLR
10:25 64.6 °F 45 °F 30.2 in WSW 4.7 mph 6.9 mph 49% 0 in CLR
10:30 65.1 °F 45 °F 30.2 in WSW 4.7 mph 9.2 mph 48% 0 in CLR
10:35 65.5 °F 45.3 °F 30.2 in WSW 5.4 mph 5.8 mph 48% 0 in CLR
10:40 65.8 °F 45 °F 30.2 in NW 5.4 mph 11.5 mph 47% 0 in CLR
10:45 66.4 °F 45 °F 30.2 in WNW 4.3 mph 10.4 mph 46% 0 in CLR
10:50 66.6 °F 45.1 °F 30.2 in West 4.3 mph 6.9 mph 46% 0 in CLR
10:55 66.9 °F 45 °F 30.2 in SSW 4 mph 9.2 mph 45% 0 in CLR
11:00 66.7 °F 44.8 °F 30.2 in West 4 mph 10.4 mph 45% 0 in CLR
11:06 66.9 °F 45 °F 30.2 in WSW 5.2 mph 6.9 mph 45% 0 in CLR
11:10 67.3 °F 45.1 °F 30.2 in WSW 5.2 mph 5.8 mph 45% 0 in CLR
11:15 67.6 °F 45 °F 30.2 in West 4.3 mph 6.9 mph 44% 0 in CLR
11:20 67.8 °F 44.4 °F 30.2 in WNW 4.3 mph 5.8 mph 43% 0 in CLR
11:25 67.8 °F 43.9 °F 30.2 in West 4.7 mph 5.8 mph 42% 0 in CLR
11:30 68.2 °F 44.2 °F 30.2 in West 4.7 mph 4.7 mph 42% 0 in CLR
11:36 69.1 °F 45 °F 30.2 in East 1.8 mph 3.5 mph 42% 0 in CLR
11:40 69.6 °F 44.2 °F 30.2 in SE 1.8 mph 4.6 mph 40% 0 in CLR
11:46 69.6 °F 44.2 °F 30.2 in East 3.1 mph 6.2 mph 40% 0 in CLR
11:51 69.4 °F 44.1 °F 30.2 in NW 3.1 mph 5.8 mph 40% 0 in CLR
11:56 69.6 °F 44.2 °F 30.2 in ENE 4 mph 4.7 mph 40% 0 in CLR
12:01 70.2 °F 44.8 °F 30.2 in South 4 mph 4.6 mph 40% 0 in CLR
12:06 70.9 °F 45.3 °F 30.2 in ENE 2.9 mph 2.9 mph 40% 0 in CLR
12:10 71.2 °F 44.2 °F 30.2 in ESE 2.9 mph 3.6 mph 38% 0 in CLR
12:16 71.6 °F 44.6 °F 30.2 in WNW 2.4 mph 5.9 mph 38% 0 in CLR
12:21 71.6 °F 44.6 °F 30.2 in WNW 2.4 mph 5.8 mph 38% 0 in CLR
12:26 72 °F 45 °F 30.2 in NW 2 mph 5.8 mph 38% 0 in CLR
12:37 72 °F 45 °F 30.2 in ENE 2.9 mph 4.6 mph 38% 0 in CLR
12:42 71.8 °F 44.8 °F 30.2 in ENE 2.9 mph 8.5 mph 38% 0 in CLR
12:47 71.4 °F 45.1 °F 30.2 in NE 4.7 mph 6.9 mph 39% 0 in CLR
12:52 71.8 °F 44.8 °F 30.2 in SSE 4.7 mph 4.7 mph 38% 0 in CLR
12:57 71.8 °F 44.8 °F 30.2 in NNW 4.3 mph 6.9 mph 38% 0 in CLR
13:02 71.8 °F 44.8 °F 30.2 in ESE 4.3 mph 9.2 mph 38% 0 in CLR
13:12 72 °F 44.2 °F 30.2 in ESE 5.9 mph 6.9 mph 37% 0 in CLR
13:17 72 °F 45 °F 30.2 in North 4.3 mph 4.6 mph 38% 0 in CLR
13:22 72.5 °F 44.8 °F 30.2 in WSW 4.3 mph 5.8 mph 37% 0 in CLR
13:27 72.7 °F 45 °F 30.2 in NNW 4 mph 5.8 mph 37% 0 in CLR
13:32 72.7 °F 45 °F 30.2 in North 4 mph 9.2 mph 37% 0 in CLR
13:37 73 °F 45.1 °F 30.2 in SE 4.7 mph 6.9 mph 37% 0 in CLR
13:42 73 °F 45.1 °F 30.2 in NE 4.7 mph 9.2 mph 37% 0 in CLR
13:47 73.2 °F 45.3 °F 30.2 in North 5.2 mph 5.8 mph 37% 0 in CLR
13:52 73.4 °F 44.8 °F 30.2 in ENE 5.2 mph 9.2 mph 36% 0 in CLR
13:57 73.6 °F 45 °F 30.2 in North 5.2 mph 8.1 mph 36% 0 in CLR
14:02 73.2 °F 43.9 °F 30.2 in NE 5.2 mph 15 mph 35% 0 in CLR
14:07 73 °F 44.4 °F 30.2 in NNE 7.4 mph 10.4 mph 36% 0 in CLR
14:12 73.6 °F 44.2 °F 30.2 in North 7.4 mph 9.2 mph 35% 0 in CLR
14:17 73.8 °F 45.1 °F 30.2 in NE 5.9 mph 6.9 mph 36% 0 in CLR
14:22 73.9 °F 44.4 °F 30.2 in ESE 5.9 mph 5.9 mph 35% 0 in CLR
14:27 74.1 °F 44.8 °F 30.2 in NNE 4.7 mph 8.1 mph 35% 0 in CLR
14:32 74.5 °F 44.2 °F 30.2 in WSW 4.7 mph 4.7 mph 34% 0 in CLR
14:37 74.5 °F 44.2 °F 30.2 in WNW 4.7 mph 8.1 mph 34% 0 in CLR
14:42 74.5 °F 44.2 °F 30.2 in NW 4.7 mph 9.2 mph 34% 0 in CLR
14:47 74.5 °F 44.2 °F 30.2 in NW 5.4 mph 9.2 mph 34% 0 in CLR
14:52 74.5 °F 44.2 °F 30.2 in NNE 5.4 mph 12.7 mph 34% 0 in CLR
14:57 74.5 °F 45 °F 30.2 in WNW 6.2 mph 9.2 mph 35% 0 in CLR
15:02 75 °F 45.5 °F 30.2 in ENE 6.2 mph 8.1 mph 35% 0 in CLR
15:07 75.6 °F 45.1 °F 30.2 in NNE 3.6 mph 4.6 mph 34% 0 in CLR
15:12 75.6 °F 46.8 °F 30.2 in East 3.6 mph 6.9 mph 36% 0 in CLR
15:17 75.9 °F 47.8 °F 30.2 in SE 4.7 mph 9.2 mph 37% 0 in CLR
15:22 76.1 °F 47.8 °F 30.2 in NE 4.7 mph 10.4 mph 37% 0 in CLR
15:27 75.9 °F 46.9 °F 30.2 in SE 5.4 mph 9.2 mph 36% 0 in CLR
15:32 75.7 °F 47.7 °F 30.2 in SSE 5.4 mph 12.7 mph 37% 0 in CLR
15:37 75 °F 47.7 °F 30.2 in ESE 7.4 mph 16.1 mph 38% 0 in CLR
15:42 75.4 °F 48 °F 30.2 in SSE 7.4 mph 12.3 mph 38% 0 in CLR
15:47 75.4 °F 48 °F 30.1 in SSE 8.5 mph 12.7 mph 38% 0 in CLR
15:52 75 °F 47.7 °F 30.1 in SE 8.5 mph 13.8 mph 38% 0 in CLR
15:57 75 °F 48.4 °F 30.1 in ESE 9.2 mph 15.6 mph 39% 0 in CLR
16:02 75 °F 48.4 °F 30.1 in ESE 9.2 mph 13.8 mph 39% 0 in CLR
16:07 75 °F 48.4 °F 30.1 in SE 8.7 mph 16.1 mph 39% 0 in CLR
16:12 74.7 °F 48 °F 30.1 in SE 8.7 mph 12.5 mph 39% 0 in CLR
16:17 74.7 °F 48.7 °F 30.1 in SE 10 mph 11.5 mph 40% 0 in CLR
16:22 74.5 °F 48.6 °F 30.1 in ESE 10 mph 15 mph 40% 0 in CLR
16:27 74.5 °F 48.6 °F 30.1 in SE 9.7 mph 15 mph 40% 0 in CLR
16:32 74.5 °F 48.6 °F 30.1 in SSE 9.7 mph 9.7 mph 40% 0 in CLR
16:37 74.5 °F 48.6 °F 30.1 in East 9.7 mph 12.7 mph 40% 0 in CLR
16:42 74.5 °F 48.6 °F 30.1 in SE 9.7 mph 17.3 mph 40% 0 in CLR
16:47 73.9 °F 48 °F 30.1 in ESE 10.2 mph 16.1 mph 40% 0 in CLR
16:52 73.8 °F 47.8 °F 30.1 in ESE 10.2 mph 20.7 mph 40% 0 in CLR
16:57 73.8 °F 48.6 °F 30.1 in ESE 11.2 mph 12.7 mph 41% 0 in CLR
17:02 73.8 °F 47.8 °F 30.1 in ESE 11.2 mph 13.8 mph 40% 0 in CLR
17:07 74.1 °F 48.2 °F 30.1 in ESE 9.7 mph 15 mph 40% 0 in CLR
17:12 74.1 °F 48.2 °F 30.1 in SSE 9.7 mph 15 mph 40% 0 in CLR
17:17 74.5 °F 47.8 °F 30.1 in ESE 9.2 mph 18.4 mph 39% 0 in CLR
17:22 74.1 °F 48.2 °F 30.1 in SE 9.2 mph 11.5 mph 40% 0 in CLR
17:27 74.5 °F 47.8 °F 30.1 in ESE 9.7 mph 15 mph 39% 0 in CLR
17:32 73.9 °F 48 °F 30.1 in SE 9.7 mph 15 mph 40% 0 in CLR
17:37 73.8 °F 47.8 °F 30.1 in SE 10.2 mph 13.8 mph 40% 0 in CLR
17:42 73.4 °F 47.7 °F 30.1 in SE 10.2 mph 16.1 mph 40% 0 in CLR
17:47 73.8 °F 47.8 °F 30.1 in ESE 10 mph 16.1 mph 40% 0 in CLR
17:52 73.2 °F 47.5 °F 30.1 in SE 10 mph 17.3 mph 40% 0 in CLR
17:57 73 °F 47.8 °F 30.1 in ESE 11.2 mph 17.3 mph 41% 0 in CLR
18:02 72.9 °F 47.8 °F 30.1 in SSE 11.2 mph 17.3 mph 41% 0 in CLR
18:07 73 °F 47.8 °F 30.1 in SE 11.2 mph 15 mph 41% 0 in CLR
18:12 72.9 °F 47.8 °F 30.1 in ESE 11.2 mph 12.7 mph 41% 0 in CLR
18:17 72.9 °F 47.8 °F 30.1 in SE 10.2 mph 18.4 mph 41% 0 in CLR
18:22 72.7 °F 47.7 °F 30.1 in ESE 10.2 mph 16.1 mph 41% 0 in CLR
18:27 72.5 °F 48 °F 30.1 in ESE 10.7 mph 16.1 mph 42% 0 in CLR
18:32 72.7 °F 48.4 °F 30.1 in East 10.7 mph 16.1 mph 42% 0 in CLR
18:37 72.7 °F 48.4 °F 30.1 in ESE 10.2 mph 14.5 mph 42% 0 in CLR
18:42 72.7 °F 48.4 °F 30.1 in ESE 10.2 mph 13.8 mph 42% 0 in CLR
18:47 72.3 °F 48.6 °F 30.2 in ESE 9.7 mph 13.8 mph 43% 0 in CLR
18:52 72.1 °F 48.4 °F 30.2 in SE 9.7 mph 15.6 mph 43% 0 in CLR
18:57 72.1 °F 48.4 °F 30.2 in ESE 10.2 mph 13 mph 43% 0 in CLR
19:02 72.1 °F 48.4 °F 30.2 in SE 10.2 mph 11.5 mph 43% 0 in CLR
19:07 72.3 °F 48.6 °F 30.2 in SE 8.7 mph 16.1 mph 43% 0 in CLR
19:12 72.1 °F 48.4 °F 30.2 in SE 8.7 mph 12.7 mph 43% 0 in CLR
19:17 72.1 °F 48.4 °F 30.2 in ESE 8.7 mph 13.8 mph 43% 0 in CLR
19:22 71.8 °F 48.7 °F 30.2 in SE 8.7 mph 11.2 mph 44% 0 in CLR
19:27 71.8 °F 48 °F 30.2 in ENE 9.2 mph 12.7 mph 43% 0 in CLR
19:32 71.6 °F 48.6 °F 30.2 in SE 9.2 mph 11.5 mph 44% 0 in CLR
19:37 71.4 °F 48.4 °F 30.2 in SE 8.1 mph 12.7 mph 44% 0 in CLR
19:42 71.2 °F 48.2 °F 30.2 in East 8.1 mph 13.8 mph 44% 0 in CLR
19:47 71.1 °F 48 °F 30.2 in ESE 8.7 mph 10.4 mph 44% 0 in CLR
19:52 70.9 °F 48.6 °F 30.2 in ESE 8.7 mph 10.7 mph 45% 0 in CLR
19:57 70.5 °F 48 °F 30.2 in ESE 7.6 mph 13.8 mph 45% 0 in CLR
20:02 70.3 °F 48 °F 30.2 in ESE 7.6 mph 13.8 mph 45% 0 in CLR
20:07 70 °F 48.2 °F 30.2 in ESE 8.1 mph 12.7 mph 46% 0 in CLR
20:12 69.6 °F 47.8 °F 30.2 in ESE 8.1 mph 13.8 mph 46% 0 in CLR
20:17 69.4 °F 47.8 °F 30.2 in ESE 9.2 mph 13.8 mph 46% 0 in CLR
20:22 69.4 °F 48.4 °F 30.2 in ESE 9.2 mph 13.8 mph 47% 0 in CLR
20:27 69.1 °F 48 °F 30.2 in ESE 8.5 mph 11.5 mph 47% 0 in CLR
20:32 68.7 °F 48.2 °F 30.2 in ESE 8.5 mph 10.4 mph 48% 0 in CLR
20:37 68.5 °F 48 °F 30.2 in ESE 7.4 mph 8.1 mph 48% 0 in CLR
20:42 68.4 °F 47.8 °F 30.2 in ESE 7.4 mph 7.4 mph 48% 0 in CLR
20:47 68.2 °F 48.4 °F 30.2 in East 5.9 mph 11.5 mph 49% 0 in CLR
20:52 68 °F 48 °F 30.2 in NE 5.9 mph 8.5 mph 49% 0 in CLR
20:57 67.8 °F 48.6 °F 30.2 in East 5.4 mph 6.9 mph 50% 0 in CLR
21:02 67.8 °F 48.6 °F 30.2 in NE 5.4 mph 5.8 mph 50% 0 in CLR
21:07 67.5 °F 48.2 °F 30.2 in ESE 4.7 mph 9.7 mph 50% 0 in CLR
21:12 67.3 °F 48 °F 30.2 in ENE 4.7 mph 9.2 mph 50% 0 in CLR
21:17 66.9 °F 47.7 °F 30.2 in ESE 6.4 mph 10.4 mph 50% 0 in CLR
21:22 66.9 °F 48.2 °F 30.2 in NE 6.4 mph 8.1 mph 51% 0 in CLR
21:27 66.6 °F 47.8 °F 30.2 in ENE 5.9 mph 6.9 mph 51% 0 in CLR
21:32 66.4 °F 48.2 °F 30.2 in NE 5.9 mph 9.2 mph 52% 0 in CLR
21:37 66.2 °F 48 °F 30.2 in ESE 4.7 mph 5.8 mph 52% 0 in CLR
21:42 66 °F 47.8 °F 30.2 in NE 4.7 mph 8.1 mph 52% 0 in CLR
21:47 65.8 °F 48.2 °F 30.2 in ENE 4 mph 6.9 mph 53% 0 in CLR
21:52 65.7 °F 48.6 °F 30.2 in NE 4 mph 8.1 mph 54% 0 in CLR
21:57 65.5 °F 48.4 °F 30.2 in NE 5.2 mph 6.9 mph 54% 0 in CLR
22:02 65.5 °F 48.4 °F 30.2 in ENE 5.2 mph 5.8 mph 54% 0 in CLR
22:07 65.1 °F 48.6 °F 30.2 in NNE 4.3 mph 5.8 mph 55% 0 in CLR
22:12 64.8 °F 49.3 °F 30.2 in NE 4.3 mph 6.9 mph 57% 0 in CLR
22:17 64.2 °F 48.7 °F 30.2 in NNE 4.3 mph 5.9 mph 57% 0 in CLR
22:22 63.9 °F 48.7 °F 30.2 in NNE 4.3 mph 5.8 mph 58% 0 in CLR
22:27 63.7 °F 49.1 °F 30.2 in NE 4 mph 4.6 mph 59% 0 in CLR
22:32 63.5 °F 48.9 °F 30.2 in NNE 4 mph 8.1 mph 59% 0 in CLR
22:37 63.1 °F 48.9 °F 30.2 in NNE 4 mph 8.1 mph 60% 0 in CLR
22:42 63 °F 48.9 °F 30.2 in NNE 4 mph 7.4 mph 60% 0 in CLR
22:47 63 °F 48.9 °F 30.2 in NNE 5.2 mph 6.9 mph 60% 0 in CLR
22:52 62.8 °F 48.7 °F 30.2 in NE 5.2 mph 8.1 mph 60% 0 in CLR
22:57 62.6 °F 48.6 °F 30.2 in ENE 5.2 mph 6.9 mph 60% 0 in CLR
23:02 62.4 °F 48.7 °F 30.2 in NNE 5.2 mph 6.9 mph 61% 0 in CLR
23:07 62.4 °F 48.7 °F 30.2 in NNE 5.2 mph 5.8 mph 61% 0 in CLR
23:12 62.2 °F 48.6 °F 30.2 in NNE 5.2 mph 5.8 mph 61% 0 in CLR
23:17 62.2 °F 48.6 °F 30.2 in NE 4.3 mph 5.8 mph 61% 0 in CLR
23:23 62.1 °F 48.9 °F 30.2 in NNE 4.3 mph 4.6 mph 62% 0 in CLR
23:28 62.1 °F 48.9 °F 30.2 in NNE 3.1 mph 4.6 mph 62% 0 in CLR
23:33 62.1 °F 48.9 °F 30.2 in North 3.1 mph 4.6 mph 62% 0 in CLR
23:38 61.9 °F 48.7 °F 30.2 in NNE 2.9 mph 4.6 mph 62% 0 in CLR
23:43 61.9 °F 49.1 °F 30.2 in ENE 2.9 mph 4.6 mph 63% 0 in CLR
23:48 61.5 °F 48.7 °F 30.2 in NE 3.1 mph 5.9 mph 63% 0 in CLR
23:53 61.5 °F 48.7 °F 30.2 in NE 3.1 mph 5.8 mph 63% 0 in CLR
23:58 61.5 °F 48.7 °F 30.2 in NE 3.6 mph 4.6 mph 63% 0 in CLR
Murcia-Puente Tocinos, España
Compliments of Weather Underground - 2.75 mb

La estación de MeteoMurcia.com, publica sus datos en los siguientes proyectos:

Meteoclimatic www.awekas.at

W3Counter
Web Analytics